Time;durP1;ratioP1;P1;durP2;ratioP2;P2;SDS_P1;SDS_P2;PMS_P1;PMS_P2;Temp;Humidity;BMP_temperature;BMP_pressure;BME280_temperature;BME280_humidity;BME280_pressure;Samples;Min_cycle;Max_cycle;Signal;HPM_P1;HPM_P2
2022/01/07 00:00:36;;;;;;;5.05;4.20;;;-0.40;99.90;;;;;;493469;241;27556;-69
2022/01/07 00:02:37;;;;;;;4.47;4.07;;;-0.40;99.90;;;;;;493435;241;27508;-69
2022/01/07 00:04:38;;;;;;;5.82;3.22;;;-0.40;99.90;;;;;;493477;241;27502;-69
2022/01/07 00:06:40;;;;;;;4.47;3.60;;;-0.40;99.90;;;;;;493474;241;27488;-69
2022/01/07 00:08:41;;;;;;;4.32;3.78;;;-0.40;99.90;;;;;;493481;241;27563;-69
2022/01/07 00:10:42;;;;;;;4.15;3.72;;;-0.30;99.90;;;;;;493481;241;27461;-69
2022/01/07 00:12:43;;;;;;;5.05;3.67;;;-0.30;99.90;;;;;;493435;241;27622;-69
2022/01/07 00:14:45;;;;;;;6.28;4.22;;;-0.30;99.90;;;;;;493485;241;29380;-69
2022/01/07 00:16:46;;;;;;;4.70;3.45;;;-0.30;99.90;;;;;;493477;241;29127;-69
2022/01/07 00:18:47;;;;;;;3.72;3.33;;;-0.30;99.90;;;;;;493502;241;28068;-69
2022/01/07 00:20:48;;;;;;;4.95;4.07;;;-0.30;99.90;;;;;;493487;241;27563;-69
2022/01/07 00:22:50;;;;;;;5.60;3.80;;;-0.30;99.90;;;;;;493462;238;27583;-70
2022/01/07 00:24:51;;;;;;;5.90;4.00;;;-0.30;99.90;;;;;;493449;241;27599;-69
2022/01/07 00:26:52;;;;;;;4.87;4.00;;;-0.20;99.90;;;;;;493500;241;27576;-69
2022/01/07 00:28:53;;;;;;;6.53;3.70;;;-0.20;99.90;;;;;;493464;241;27515;-69
2022/01/07 00:30:55;;;;;;;4.47;3.47;;;-0.20;99.90;;;;;;493459;241;27512;-69
2022/01/07 00:32:56;;;;;;;5.05;4.12;;;-0.20;99.90;;;;;;493439;241;27579;-69
2022/01/07 00:34:57;;;;;;;4.35;3.95;;;-0.20;99.90;;;;;;493489;241;28026;-69
2022/01/07 00:36:58;;;;;;;10.73;3.78;;;-0.20;99.90;;;;;;493468;241;29051;-69
2022/01/07 00:39:00;;;;;;;5.15;3.92;;;-0.20;99.90;;;;;;493454;241;27505;-69
2022/01/07 00:41:01;;;;;;;6.07;3.80;;;-0.20;99.90;;;;;;493469;241;27479;-69
2022/01/07 00:43:02;;;;;;;7.18;3.95;;;-0.20;99.90;;;;;;493493;241;27478;-69
2022/01/07 00:45:03;;;;;;;5.45;3.75;;;-0.10;99.90;;;;;;493480;241;27484;-69
2022/01/07 00:47:05;;;;;;;4.25;3.67;;;-0.10;99.90;;;;;;493471;241;27628;-69
2022/01/07 00:49:06;;;;;;;3.97;3.50;;;-0.10;99.90;;;;;;493436;241;27503;-69
2022/01/07 00:51:09;;;;;;;6.30;3.65;;;-0.10;99.90;;;;;;493433;241;27466;-70
2022/01/07 00:53:08;;;;;;;7.50;4.43;;;-0.10;99.90;;;;;;493373;241;27948;-69
2022/01/07 00:55:10;;;;;;;4.28;3.70;;;0.00;99.90;;;;;;493488;241;27983;-69
2022/01/07 00:57:11;;;;;;;8.48;4.15;;;0.00;99.90;;;;;;493507;241;27928;-69
2022/01/07 00:59:12;;;;;;;5.07;4.22;;;0.00;99.90;;;;;;493513;241;29095;-69
2022/01/07 01:01:13;;;;;;;4.70;4.20;;;0.00;99.90;;;;;;493464;241;27462;-69
2022/01/07 01:03:15;;;;;;;3.83;3.47;;;0.00;99.90;;;;;;493528;241;27497;-69
2022/01/07 01:05:16;;;;;;;6.70;4.60;;;0.10;99.90;;;;;;493478;241;27502;-70
2022/01/07 01:07:17;;;;;;;6.25;4.53;;;0.10;99.90;;;;;;493469;241;27462;-69
2022/01/07 01:09:18;;;;;;;5.00;4.45;;;0.10;99.90;;;;;;493477;241;27500;-69
2022/01/07 01:11:20;;;;;;;6.32;4.78;;;0.10;99.90;;;;;;493461;241;27464;-69
2022/01/07 01:13:21;;;;;;;8.05;4.22;;;0.10;99.90;;;;;;493509;241;27584;-69
2022/01/07 01:15:22;;;;;;;5.05;4.60;;;0.10;99.90;;;;;;493499;241;27509;-69
2022/01/07 01:17:23;;;;;;;4.40;4.00;;;0.10;99.90;;;;;;493476;241;27464;-69
2022/01/07 01:19:25;;;;;;;7.50;4.10;;;0.10;99.90;;;;;;493485;241;27505;-69
2022/01/07 01:21:26;;;;;;;5.32;4.53;;;0.10;99.90;;;;;;493445;241;27964;-69
2022/01/07 01:23:27;;;;;;;9.15;4.22;;;0.10;99.90;;;;;;493460;241;28066;-69
2022/01/07 01:25:29;;;;;;;7.70;3.97;;;0.10;99.90;;;;;;493476;241;28011;-69
2022/01/07 01:27:30;;;;;;;7.10;4.53;;;0.00;99.90;;;;;;493493;241;27908;-70
2022/01/07 01:29:32;;;;;;;9.65;4.82;;;0.00;99.90;;;;;;493481;241;27538;-69
2022/01/07 01:31:35;;;;;;;7.55;4.35;;;0.00;99.90;;;;;;493450;241;27569;-69
2022/01/07 01:33:33;;;;;;;4.78;4.28;;;0.00;99.90;;;;;;493458;241;27551;-69
2022/01/07 01:35:37;;;;;;;7.37;4.00;;;0.00;99.90;;;;;;493520;241;27547;-69
2022/01/07 01:37:36;;;;;;;7.60;4.00;;;0.00;99.90;;;;;;493410;241;27555;-69
2022/01/07 01:39:37;;;;;;;6.20;4.25;;;0.00;99.90;;;;;;493485;241;27508;-69
2022/01/07 01:41:38;;;;;;;6.47;4.10;;;0.00;99.90;;;;;;493465;241;27503;-69
2022/01/07 01:43:40;;;;;;;6.75;5.00;;;0.00;99.90;;;;;;493432;241;27604;-69
2022/01/07 01:45:41;;;;;;;6.25;4.57;;;0.00;99.90;;;;;;493438;241;27511;-69
2022/01/07 01:47:42;;;;;;;9.65;5.30;;;0.00;99.90;;;;;;493481;241;27478;-69
2022/01/07 01:49:43;;;;;;;6.75;4.60;;;0.00;99.90;;;;;;493481;241;28004;-69
2022/01/07 01:51:45;;;;;;;7.03;4.32;;;0.00;99.90;;;;;;493435;241;27967;-70
2022/01/07 01:53:46;;;;;;;8.80;4.80;;;0.00;99.90;;;;;;493448;241;27968;-69
2022/01/07 01:55:47;;;;;;;8.75;5.00;;;-0.10;99.90;;;;;;493510;241;27968;-71
2022/01/07 01:57:50;;;;;;;9.13;5.03;;;0.00;99.90;;;;;;493464;241;27469;-69
2022/01/07 01:59:50;;;;;;;11.25;5.57;;;0.00;99.90;;;;;;493456;241;27585;-69
2022/01/07 02:01:51;;;;;;;4.57;3.70;;;0.00;99.90;;;;;;493481;241;27460;-70
2022/01/07 02:03:52;;;;;;;9.80;5.12;;;0.00;99.90;;;;;;493490;241;27556;-69
2022/01/07 02:05:54;;;;;;;6.47;4.85;;;0.10;99.90;;;;;;493474;241;27508;-69
2022/01/07 02:07:55;;;;;;;6.37;4.55;;;0.00;99.90;;;;;;493453;241;27594;-69
2022/01/07 02:09:56;;;;;;;7.18;5.15;;;0.00;99.90;;;;;;493471;241;27596;-69
2022/01/07 02:11:57;;;;;;;6.25;4.40;;;0.00;99.90;;;;;;493506;241;27456;-69
2022/01/07 02:13:59;;;;;;;6.78;4.87;;;-0.10;99.90;;;;;;493503;241;27487;-69
2022/01/07 02:16:00;;;;;;;7.65;4.60;;;-0.10;99.90;;;;;;493475;241;27966;-69
2022/01/07 02:18:01;;;;;;;7.03;4.35;;;0.00;99.90;;;;;;493483;241;27931;-69
2022/01/07 02:20:02;;;;;;;8.70;4.65;;;0.00;99.90;;;;;;493494;241;28052;-69
2022/01/07 02:22:04;;;;;;;6.85;4.50;;;0.00;99.90;;;;;;493498;241;27797;-69
2022/01/07 02:24:05;;;;;;;5.18;4.30;;;0.00;99.90;;;;;;493479;241;27511;-69
2022/01/07 02:26:06;;;;;;;5.03;3.90;;;0.00;99.90;;;;;;493510;241;27506;-69
2022/01/07 02:28:07;;;;;;;11.80;4.60;;;0.00;99.90;;;;;;493502;241;27457;-69
2022/01/07 02:30:09;;;;;;;9.15;4.40;;;0.00;99.90;;;;;;493491;238;27500;-69
2022/01/07 02:32:10;;;;;;;7.72;5.07;;;0.10;99.90;;;;;;493499;241;27513;-70
2022/01/07 02:34:11;;;;;;;5.22;4.05;;;0.10;99.90;;;;;;493468;241;27495;-69
2022/01/07 02:36:13;;;;;;;8.13;4.57;;;0.10;99.90;;;;;;493501;241;27581;-69
2022/01/07 02:38:14;;;;;;;6.68;4.68;;;0.10;99.90;;;;;;493480;241;27464;-69
2022/01/07 02:40:15;;;;;;;8.40;5.53;;;0.10;99.90;;;;;;493437;241;27515;-69
2022/01/07 02:42:16;;;;;;;8.35;4.87;;;0.20;99.90;;;;;;493493;241;28049;-69
2022/01/07 02:44:17;;;;;;;7.45;4.78;;;0.20;99.90;;;;;;493511;241;28010;-69
2022/01/07 02:46:19;;;;;;;8.25;5.40;;;0.20;99.90;;;;;;493512;241;29071;-69
2022/01/07 02:48:20;;;;;;;6.10;4.45;;;0.20;99.90;;;;;;493493;241;27926;-69
2022/01/07 02:50:21;;;;;;;10.63;4.78;;;0.20;99.90;;;;;;493474;241;27500;-69
2022/01/07 02:52:22;;;;;;;9.35;5.28;;;0.20;99.90;;;;;;493518;241;27527;-69
2022/01/07 02:54:24;;;;;;;6.20;4.40;;;0.20;99.90;;;;;;493482;241;27480;-69
2022/01/07 02:56:25;;;;;;;8.02;5.00;;;0.20;99.90;;;;;;493488;241;27528;-69
2022/01/07 02:58:26;;;;;;;6.20;4.50;;;0.20;99.90;;;;;;493468;241;27579;-69
2022/01/07 03:00:27;;;;;;;8.40;5.80;;;0.20;99.90;;;;;;493444;241;27511;-69
2022/01/07 03:02:29;;;;;;;7.22;4.90;;;0.20;99.90;;;;;;493505;241;27515;-69
2022/01/07 03:04:30;;;;;;;6.65;4.80;;;0.20;99.90;;;;;;493480;241;27474;-69
2022/01/07 03:06:31;;;;;;;6.68;4.75;;;0.20;99.90;;;;;;493289;241;27500;-69
2022/01/07 03:08:32;;;;;;;6.80;4.30;;;0.20;99.90;;;;;;493268;241;28027;-70
2022/01/07 03:10:34;;;;;;;4.80;3.97;;;0.10;99.90;;;;;;493213;241;27980;-69
2022/01/07 03:12:36;;;;;;;8.45;4.97;;;0.10;99.90;;;;;;493316;241;28003;-69
2022/01/07 03:14:36;;;;;;;5.45;4.30;;;0.10;99.90;;;;;;493370;241;29017;-69
2022/01/07 03:16:39;;;;;;;13.62;6.07;;;0.00;99.90;;;;;;493458;241;27573;-69
2022/01/07 03:18:39;;;;;;;8.18;4.90;;;0.00;99.90;;;;;;493452;241;27460;-69
2022/01/07 03:20:41;;;;;;;6.37;4.12;;;0.00;99.90;;;;;;493459;241;27464;-70
2022/01/07 03:22:41;;;;;;;6.35;4.57;;;-0.10;99.90;;;;;;493487;241;27490;-69
2022/01/07 03:24:42;;;;;;;5.00;4.10;;;0.00;99.90;;;;;;493469;241;27542;-70
2022/01/07 03:26:44;;;;;;;5.43;4.22;;;0.00;99.90;;;;;;493465;241;27628;-69
2022/01/07 03:28:46;;;;;;;5.95;4.43;;;0.10;99.90;;;;;;493474;241;27500;-69
2022/01/07 03:30:46;;;;;;;5.70;4.50;;;0.10;99.90;;;;;;493448;240;27532;-69
2022/01/07 03:32:47;;;;;;;6.05;4.68;;;0.10;99.90;;;;;;493432;241;27537;-69
2022/01/07 03:34:49;;;;;;;5.32;4.53;;;0.10;99.90;;;;;;493460;241;27951;-69
2022/01/07 03:36:50;;;;;;;6.82;4.60;;;0.10;99.90;;;;;;493431;241;28055;-69
2022/01/07 03:38:51;;;;;;;6.10;4.37;;;0.10;99.90;;;;;;493476;241;28709;-69
2022/01/07 03:40:52;;;;;;;8.02;4.07;;;0.20;99.90;;;;;;493489;241;27911;-69
2022/01/07 03:42:54;;;;;;;7.12;5.03;;;0.20;99.90;;;;;;493496;241;27508;-69
2022/01/07 03:44:55;;;;;;;7.00;5.03;;;0.20;99.90;;;;;;493449;241;27513;-69
2022/01/07 03:46:56;;;;;;;5.87;4.53;;;0.20;99.90;;;;;;493459;241;27504;-69
2022/01/07 03:48:57;;;;;;;7.05;4.65;;;0.20;99.90;;;;;;493462;241;27515;-69
2022/01/07 03:50:59;;;;;;;6.37;4.22;;;0.30;99.90;;;;;;493497;241;27468;-70
2022/01/07 03:53:00;;;;;;;9.05;5.12;;;0.20;99.90;;;;;;493439;241;27512;-69
2022/01/07 03:55:01;;;;;;;6.50;4.50;;;0.20;99.90;;;;;;493474;241;27580;-69
2022/01/07 03:57:02;;;;;;;7.50;4.95;;;0.30;99.90;;;;;;493443;241;27508;-70
2022/01/07 03:59:04;;;;;;;6.22;4.53;;;0.30;99.90;;;;;;493472;241;27849;-69
2022/01/07 04:01:05;;;;;;;6.57;4.12;;;0.30;99.90;;;;;;493455;241;27529;-69
2022/01/07 04:03:06;;;;;;;6.65;4.80;;;0.30;99.90;;;;;;493471;241;27976;-69
2022/01/07 04:05:07;;;;;;;9.02;5.50;;;0.30;99.90;;;;;;493472;241;28685;-69
2022/01/07 04:07:09;;;;;;;7.65;4.80;;;0.30;99.90;;;;;;493445;241;28060;-69
2022/01/07 04:09:10;;;;;;;7.62;5.07;;;0.30;99.90;;;;;;493474;241;27919;-70
2022/01/07 04:11:11;;;;;;;6.40;4.47;;;0.40;99.90;;;;;;493513;241;27459;-69
2022/01/07 04:13:12;;;;;;;6.05;4.75;;;0.40;99.90;;;;;;493462;241;27502;-69
2022/01/07 04:15:14;;;;;;;8.90;5.05;;;0.40;99.90;;;;;;493458;241;27480;-69
2022/01/07 04:17:15;;;;;;;8.07;5.55;;;0.40;99.90;;;;;;493420;241;27590;-69
2022/01/07 04:19:16;;;;;;;6.78;4.97;;;0.50;99.90;;;;;;493475;241;27497;-69
2022/01/07 04:21:17;;;;;;;8.07;4.37;;;0.50;99.90;;;;;;493525;241;27483;-69
2022/01/07 04:23:19;;;;;;;5.53;4.40;;;0.50;99.90;;;;;;493506;241;27520;-69
2022/01/07 04:25:21;;;;;;;13.07;5.22;;;0.60;99.90;;;;;;493499;241;27591;-69
2022/01/07 04:27:21;;;;;;;6.15;4.32;;;0.60;99.90;;;;;;493469;241;27507;-69
2022/01/07 04:29:22;;;;;;;7.35;4.50;;;0.60;99.90;;;;;;493464;241;27548;-70
2022/01/07 04:31:24;;;;;;;8.52;4.68;;;0.60;99.90;;;;;;493492;241;27909;-69
2022/01/07 04:33:31;;;;;;;6.75;4.87;;;0.60;99.90;;;;;;493396;241;27971;-69
2022/01/07 04:35:29;;;;;;;7.50;5.07;;;0.60;99.90;;;;;;493431;241;27527;-69
2022/01/07 04:37:30;;;;;;;9.20;3.80;;;0.60;99.90;;;;;;493488;241;27458;-69
2022/01/07 04:39:31;;;;;;;8.23;4.90;;;0.60;99.90;;;;;;493448;241;27485;-69
2022/01/07 04:41:33;;;;;;;4.75;3.95;;;0.70;99.90;;;;;;493464;241;27566;-69
2022/01/07 04:43:34;;;;;;;7.75;3.92;;;0.60;99.90;;;;;;493449;241;27623;-69
2022/01/07 04:45:35;;;;;;;4.60;4.20;;;0.60;99.90;;;;;;493469;241;27507;-69
2022/01/07 04:47:36;;;;;;;5.57;3.78;;;0.60;99.90;;;;;;493480;241;27452;-69
2022/01/07 04:49:38;;;;;;;6.10;4.18;;;0.60;99.90;;;;;;493438;241;27588;-69
2022/01/07 04:51:39;;;;;;;4.57;4.10;;;0.70;99.90;;;;;;493441;238;28761;-69
2022/01/07 04:53:40;;;;;;;5.97;4.35;;;0.70;99.90;;;;;;493458;241;28015;-69
2022/01/07 04:55:43;;;;;;;6.20;4.68;;;0.70;99.90;;;;;;493478;241;27995;-69
2022/01/07 04:57:43;;;;;;;8.15;4.20;;;0.70;99.90;;;;;;493436;241;29099;-69
2022/01/07 04:59:44;;;;;;;9.02;4.65;;;0.70;99.90;;;;;;493465;241;27591;-69
2022/01/07 05:01:45;;;;;;;4.18;3.78;;;0.70;99.90;;;;;;493480;241;27496;-70
2022/01/07 05:03:46;;;;;;;6.43;4.07;;;0.70;99.90;;;;;;493504;241;27546;-69
2022/01/07 05:05:56;;;;;;;8.52;4.70;;;0.70;99.90;;;;;;493480;241;27512;-69
2022/01/07 05:07:49;;;;;;;4.62;3.80;;;0.70;99.90;;;;;;493446;241;27468;-69
2022/01/07 05:09:50;;;;;;;6.68;4.35;;;0.70;99.90;;;;;;493437;241;27538;-69
2022/01/07 05:11:51;;;;;;;9.55;4.45;;;0.70;99.90;;;;;;493445;241;27504;-69
2022/01/07 05:13:53;;;;;;;7.62;4.55;;;0.70;99.90;;;;;;493510;241;27465;-69
2022/01/07 05:15:54;;;;;;;7.55;4.25;;;0.70;99.90;;;;;;493474;241;27547;-69
2022/01/07 05:17:55;;;;;;;5.18;4.10;;;0.70;99.90;;;;;;493490;241;27521;-69
2022/01/07 05:19:56;;;;;;;6.78;4.80;;;0.70;99.90;;;;;;493468;241;27972;-69
2022/01/07 05:21:58;;;;;;;8.98;4.30;;;0.70;99.90;;;;;;493456;241;28726;-69
2022/01/07 05:23:59;;;;;;;5.65;3.85;;;0.70;99.90;;;;;;493508;241;27917;-69
2022/01/07 05:26:00;;;;;;;11.60;5.65;;;0.80;99.90;;;;;;493473;241;28070;-69
2022/01/07 05:28:01;;;;;;;9.73;4.60;;;0.80;99.90;;;;;;493454;241;27536;-69
2022/01/07 05:30:03;;;;;;;11.68;4.68;;;0.80;99.90;;;;;;493465;241;27500;-69
2022/01/07 05:32:04;;;;;;;9.23;4.90;;;0.80;99.90;;;;;;493455;241;27552;-69
2022/01/07 05:34:05;;;;;;;10.02;4.30;;;0.80;99.90;;;;;;493478;241;27513;-69
2022/01/07 05:36:06;;;;;;;5.28;4.20;;;0.80;99.90;;;;;;493473;241;27524;-69
2022/01/07 05:38:08;;;;;;;6.50;4.30;;;0.80;99.90;;;;;;493454;241;27483;-69
2022/01/07 05:40:09;;;;;;;5.97;4.00;;;0.80;99.90;;;;;;493461;241;27520;-70
2022/01/07 05:42:10;;;;;;;5.85;3.80;;;0.80;99.90;;;;;;493486;239;27546;-69
2022/01/07 05:44:11;;;;;;;15.07;4.32;;;0.80;99.90;;;;;;493521;241;27507;-69
2022/01/07 05:46:14;;;;;;;10.30;4.68;;;0.80;99.90;;;;;;493490;241;28029;-69
2022/01/07 05:48:14;;;;;;;7.20;4.30;;;0.80;99.90;;;;;;493416;241;29009;-69
2022/01/07 05:50:15;;;;;;;9.75;4.25;;;0.80;99.90;;;;;;493495;241;27988;-69
2022/01/07 05:52:16;;;;;;;4.15;3.75;;;0.80;99.90;;;;;;493502;241;27606;-69
2022/01/07 05:54:18;;;;;;;8.75;4.12;;;0.90;99.90;;;;;;493540;241;27598;-69
2022/01/07 05:56:19;;;;;;;9.93;4.20;;;0.90;99.90;;;;;;493499;241;27512;-69
2022/01/07 05:58:20;;;;;;;7.55;4.20;;;0.90;99.90;;;;;;493524;241;27559;-69
2022/01/07 06:00:21;;;;;;;4.95;3.60;;;0.90;99.90;;;;;;493495;241;27607;-69
2022/01/07 06:02:23;;;;;;;8.75;3.80;;;0.80;99.90;;;;;;493495;241;27598;-70
2022/01/07 06:04:24;;;;;;;6.80;3.67;;;0.80;99.90;;;;;;493514;241;27572;-69
2022/01/07 06:06:25;;;;;;;6.97;3.65;;;0.80;99.90;;;;;;493488;241;27593;-69
2022/01/07 06:08:26;;;;;;;5.60;3.47;;;0.90;99.90;;;;;;493492;241;27466;-69
2022/01/07 06:10:28;;;;;;;6.15;4.22;;;0.90;99.90;;;;;;493498;241;27461;-69
2022/01/07 06:12:29;;;;;;;5.78;3.87;;;0.90;99.90;;;;;;493521;241;27961;-70
2022/01/07 06:14:30;;;;;;;9.10;3.90;;;0.90;99.90;;;;;;493491;241;27929;-69
2022/01/07 06:16:31;;;;;;;4.85;3.87;;;0.90;99.90;;;;;;493482;241;27997;-69
2022/01/07 06:18:33;;;;;;;4.62;3.40;;;0.90;99.90;;;;;;493484;241;27956;-69
2022/01/07 06:20:34;;;;;;;4.12;3.58;;;0.90;99.90;;;;;;493509;241;27559;-69
2022/01/07 06:22:35;;;;;;;5.28;3.72;;;0.90;99.90;;;;;;493476;241;27524;-69
2022/01/07 06:24:36;;;;;;;4.75;3.40;;;0.90;99.90;;;;;;493514;241;27474;-69
2022/01/07 06:26:38;;;;;;;5.37;3.67;;;0.90;99.90;;;;;;493489;241;27487;-69
2022/01/07 06:28:39;;;;;;;8.50;4.40;;;0.90;99.90;;;;;;493463;241;27475;-70
2022/01/07 06:30:40;;;;;;;5.35;4.15;;;1.00;99.90;;;;;;493498;241;27581;-69
2022/01/07 06:32:42;;;;;;;6.03;4.40;;;1.00;99.90;;;;;;493472;241;27515;-70
2022/01/07 06:34:43;;;;;;;5.85;4.32;;;0.90;99.90;;;;;;493502;241;27626;-69
2022/01/07 06:36:44;;;;;;;9.27;4.37;;;1.00;99.90;;;;;;489117;241;27408;-69
2022/01/07 06:38:45;;;;;;;4.90;3.90;;;1.00;99.90;;;;;;486083;242;27421;-70
2022/01/07 06:40:46;;;;;;;6.75;4.07;;;1.00;99.90;;;;;;486119;242;27852;-69
2022/01/07 06:42:48;;;;;;;5.40;4.07;;;1.00;99.90;;;;;;486108;242;27906;-69
2022/01/07 06:44:49;;;;;;;4.35;3.40;;;1.00;99.90;;;;;;486116;242;27924;-69
2022/01/07 06:46:50;;;;;;;4.90;3.72;;;1.00;99.90;;;;;;486077;242;27906;-69
2022/01/07 06:48:51;;;;;;;6.93;4.20;;;1.00;99.90;;;;;;486104;242;27476;-69
2022/01/07 06:50:53;;;;;;;3.60;3.20;;;1.00;99.90;;;;;;486125;242;27445;-69
2022/01/07 06:52:54;;;;;;;4.45;3.40;;;1.00;99.90;;;;;;486120;242;27408;-69
2022/01/07 06:54:55;;;;;;;6.18;4.07;;;1.00;99.90;;;;;;486066;242;27398;-70
2022/01/07 06:56:56;;;;;;;6.15;4.07;;;1.00;99.90;;;;;;486085;242;27508;-69
2022/01/07 06:58:58;;;;;;;5.05;3.67;;;1.00;99.90;;;;;;486089;242;27404;-69
2022/01/07 07:00:59;;;;;;;6.20;4.30;;;1.10;99.90;;;;;;486097;244;27461;-69
2022/01/07 07:03:00;;;;;;;5.50;3.78;;;1.00;99.90;;;;;;486120;242;27491;-69
2022/01/07 07:05:01;;;;;;;8.63;5.05;;;1.10;99.90;;;;;;486094;242;27372;-69
2022/01/07 07:07:03;;;;;;;9.18;4.22;;;1.00;99.90;;;;;;486102;242;27489;-69
2022/01/07 07:09:04;;;;;;;6.50;3.78;;;1.10;99.90;;;;;;486115;242;28327;-69
2022/01/07 07:11:06;;;;;;;6.93;5.40;;;1.10;99.90;;;;;;486120;242;27908;-69
2022/01/07 07:13:06;;;;;;;6.18;4.70;;;1.10;99.90;;;;;;486105;242;27871;-70
2022/01/07 07:15:08;;;;;;;7.00;4.10;;;1.10;99.90;;;;;;486084;242;27952;-69
2022/01/07 07:17:11;;;;;;;4.28;3.80;;;1.10;99.90;;;;;;486057;242;27492;-69
2022/01/07 07:19:10;;;;;;;6.85;4.35;;;1.00;99.90;;;;;;486163;242;27416;-69
2022/01/07 07:21:11;;;;;;;6.80;4.25;;;1.00;99.90;;;;;;486096;242;27389;-69
2022/01/07 07:23:13;;;;;;;9.68;4.60;;;1.00;99.90;;;;;;486091;242;27487;-69
2022/01/07 07:25:14;;;;;;;9.05;4.30;;;1.00;99.90;;;;;;486083;242;27377;-70
2022/01/07 07:27:15;;;;;;;7.60;4.40;;;1.00;99.90;;;;;;486104;242;27503;-69
2022/01/07 07:29:16;;;;;;;4.93;4.45;;;1.00;99.90;;;;;;486110;242;27417;-70
2022/01/07 07:31:19;;;;;;;8.25;5.28;;;0.90;99.90;;;;;;486087;242;27381;-69
2022/01/07 07:37:36;;;;;;;7.10;4.53;;;0.90;99.90;;;;;;489882;240;27834;-71
2022/01/07 07:39:38;;;;;;;9.57;4.32;;;0.90;99.90;;;;;;486157;242;27385;-69
2022/01/07 07:41:39;;;;;;;5.97;4.53;;;0.90;99.90;;;;;;486111;242;28007;-69
2022/01/07 07:43:41;;;;;;;5.43;4.07;;;0.90;99.90;;;;;;486131;242;27878;-69
2022/01/07 07:45:41;;;;;;;7.53;4.32;;;0.90;99.90;;;;;;486097;242;27998;-69
2022/01/07 07:47:43;;;;;;;5.30;4.00;;;1.00;99.90;;;;;;486055;242;27966;-69
2022/01/07 07:49:44;;;;;;;6.28;4.00;;;0.90;99.90;;;;;;486104;242;27361;-69
2022/01/07 07:51:46;;;;;;;5.78;4.20;;;0.90;99.90;;;;;;486080;242;27429;-69
2022/01/07 07:53:46;;;;;;;8.02;4.10;;;1.00;99.90;;;;;;486095;242;27396;-69
2022/01/07 07:55:57;;;;;;;5.12;3.62;;;1.00;99.90;;;;;;486066;242;27463;-69
2022/01/07 07:57:49;;;;;;;8.40;4.22;;;1.00;99.90;;;;;;486476;240;27392;-69
2022/01/07 07:59:50;;;;;;;5.12;4.00;;;1.00;99.90;;;;;;486117;244;27530;-69
2022/01/07 08:01:51;;;;;;;5.85;3.60;;;1.00;99.90;;;;;;486099;242;27420;-69
2022/01/07 08:03:53;;;;;;;5.93;3.90;;;1.10;99.90;;;;;;486072;242;27387;-69
2022/01/07 08:05:54;;;;;;;4.30;3.90;;;1.10;99.90;;;;;;486091;242;27416;-69
2022/01/07 08:07:56;;;;;;;9.20;3.67;;;1.10;99.90;;;;;;486082;242;27923;-70
2022/01/07 08:09:56;;;;;;;7.12;3.90;;;1.00;99.90;;;;;;486105;242;27938;-69
2022/01/07 08:12:05;;;;;;;5.22;4.25;;;1.10;99.90;;;;;;486105;242;27895;-69
2022/01/07 08:16:19;;;;;;;4.55;3.60;;;1.10;99.90;;;;;;486050;242;27876;-69
2022/01/07 08:18:22;;;;;;;6.37;4.03;;;1.10;99.90;;;;;;486085;242;27448;-69
2022/01/07 08:20:21;;;;;;;5.68;4.28;;;1.10;99.90;;;;;;486082;242;27842;-69
2022/01/07 08:22:22;;;;;;;8.73;5.05;;;1.10;99.90;;;;;;486110;242;28003;-69
2022/01/07 08:24:23;;;;;;;9.35;5.43;;;1.10;99.90;;;;;;486102;242;27844;-69
2022/01/07 08:26:25;;;;;;;5.72;4.68;;;1.10;99.90;;;;;;486104;242;27954;-69
2022/01/07 08:28:30;;;;;;;11.48;4.93;;;1.10;99.90;;;;;;486120;242;27420;-69
2022/01/07 08:30:35;;;;;;;6.12;4.30;;;1.10;99.90;;;;;;486114;242;27441;-70
2022/01/07 08:34:53;;;;;;;9.30;5.45;;;1.10;99.90;;;;;;486111;244;27380;-70
2022/01/07 08:36:55;;;;;;;7.07;4.72;;;1.10;99.90;;;;;;486087;242;27531;-69
2022/01/07 08:38:56;;;;;;;5.90;4.32;;;1.10;99.90;;;;;;491864;241;27571;-69
2022/01/07 08:40:57;;;;;;;9.02;5.03;;;1.10;99.90;;;;;;493474;241;27488;-69
2022/01/07 08:42:58;;;;;;;7.22;4.05;;;1.20;99.90;;;;;;493463;241;27507;-69
2022/01/07 08:45:00;;;;;;;9.88;4.15;;;1.20;99.90;;;;;;493430;241;27476;-70
2022/01/07 08:47:01;;;;;;;9.52;4.20;;;1.20;99.90;;;;;;493478;241;27468;-69
2022/01/07 08:49:02;;;;;;;5.40;4.00;;;1.10;99.90;;;;;;493471;241;27999;-69
2022/01/07 08:51:03;;;;;;;8.13;4.45;;;1.10;99.90;;;;;;493477;241;28110;-69
2022/01/07 08:53:05;;;;;;;5.72;4.70;;;1.10;99.90;;;;;;493452;241;28086;-70
2022/01/07 08:55:06;;;;;;;5.60;4.97;;;1.10;99.90;;;;;;493462;241;28033;-69
2022/01/07 08:57:07;;;;;;;6.32;4.97;;;1.10;99.90;;;;;;493487;241;27573;-69
2022/01/07 08:59:08;;;;;;;7.78;4.55;;;1.10;99.90;;;;;;493481;241;27500;-70
2022/01/07 09:01:10;;;;;;;13.40;4.32;;;1.10;99.90;;;;;;493470;241;27540;-69
2022/01/07 09:03:11;;;;;;;6.35;5.30;;;1.10;99.90;;;;;;493459;241;27494;-69
2022/01/07 09:05:12;;;;;;;5.30;4.80;;;1.10;99.90;;;;;;493475;241;27487;-69
2022/01/07 09:07:13;;;;;;;6.32;3.80;;;1.10;99.90;;;;;;493466;241;27495;-69
2022/01/07 09:09:15;;;;;;;6.50;4.57;;;1.10;99.90;;;;;;493512;241;27525;-69
2022/01/07 09:11:16;;;;;;;6.05;4.32;;;1.10;99.90;;;;;;493478;241;27459;-69
2022/01/07 09:13:19;;;;;;;9.68;4.60;;;1.10;99.90;;;;;;493490;241;27524;-69
2022/01/07 09:15:18;;;;;;;7.10;4.55;;;1.10;99.90;;;;;;493410;241;27948;-69
2022/01/07 09:17:20;;;;;;;8.13;4.68;;;1.10;99.90;;;;;;493437;241;27984;-69
2022/01/07 09:19:21;;;;;;;6.30;4.10;;;1.10;99.90;;;;;;493535;241;28145;-70
2022/01/07 09:21:22;;;;;;;7.45;4.50;;;1.20;99.90;;;;;;493516;241;27925;-69
2022/01/07 09:23:23;;;;;;;7.78;4.70;;;1.20;99.90;;;;;;493471;241;27980;-69
2022/01/07 09:25:25;;;;;;;6.95;4.20;;;1.30;99.90;;;;;;493477;241;27580;-70
2022/01/07 09:27:26;;;;;;;5.68;4.62;;;1.30;99.90;;;;;;493470;241;27480;-69
2022/01/07 09:29:27;;;;;;;11.63;4.53;;;1.30;99.90;;;;;;493488;241;27495;-69
2022/01/07 09:31:28;;;;;;;5.85;4.80;;;1.20;99.90;;;;;;493504;241;27454;-69
2022/01/07 09:33:30;;;;;;;7.60;4.57;;;1.30;99.90;;;;;;493503;241;27504;-69
2022/01/07 09:35:31;;;;;;;5.87;4.68;;;1.30;99.90;;;;;;493538;241;27556;-69
2022/01/07 09:37:32;;;;;;;6.85;4.30;;;1.30;99.90;;;;;;493495;241;27608;-69
2022/01/07 09:39:33;;;;;;;9.52;4.60;;;1.30;99.90;;;;;;489154;241;27407;-69
2022/01/07 09:41:35;;;;;;;6.03;4.30;;;1.20;99.90;;;;;;486090;242;27447;-69
2022/01/07 09:43:36;;;;;;;5.80;4.40;;;1.30;99.90;;;;;;486087;242;27931;-69
2022/01/07 09:45:38;;;;;;;6.65;4.32;;;1.30;99.90;;;;;;486093;242;27830;-69
2022/01/07 09:47:38;;;;;;;5.82;4.00;;;1.30;99.90;;;;;;486105;242;27832;-69
2022/01/07 09:49:40;;;;;;;7.15;4.55;;;1.30;99.90;;;;;;486105;242;27902;-70
2022/01/07 09:51:41;;;;;;;5.50;4.90;;;1.20;99.90;;;;;;486121;242;27373;-70
2022/01/07 09:53:42;;;;;;;4.93;4.45;;;1.20;99.90;;;;;;486105;242;27507;-69
2022/01/07 09:55:43;;;;;;;5.05;4.35;;;1.30;99.90;;;;;;486095;242;27393;-71
2022/01/07 09:57:45;;;;;;;6.07;4.72;;;1.30;99.90;;;;;;486120;242;27503;-69
2022/01/07 09:59:46;;;;;;;5.90;5.28;;;1.30;99.90;;;;;;486108;242;27486;-69
2022/01/07 10:01:47;;;;;;;7.57;4.70;;;1.30;99.90;;;;;;486080;242;27389;-70
2022/01/07 10:03:48;;;;;;;12.00;5.70;;;1.30;99.90;;;;;;486117;242;27557;-69
2022/01/07 10:05:50;;;;;;;5.75;4.68;;;1.30;99.90;;;;;;486058;242;27749;-69
2022/01/07 10:07:51;;;;;;;7.97;4.90;;;1.30;99.90;;;;;;486133;242;27373;-69
2022/01/07 10:09:52;;;;;;;10.20;5.62;;;1.40;99.90;;;;;;486141;242;27423;-70
2022/01/07 10:11:53;;;;;;;8.02;4.62;;;1.40;99.90;;;;;;486055;242;27853;-69
2022/01/07 10:13:55;;;;;;;6.43;5.20;;;1.50;99.90;;;;;;486093;242;27936;-69
2022/01/07 10:15:56;;;;;;;7.87;4.85;;;1.50;99.90;;;;;;486134;242;28064;-69
2022/01/07 10:17:57;;;;;;;8.98;4.87;;;1.50;99.90;;;;;;486097;242;27464;-70
2022/01/07 10:20:00;;;;;;;9.30;4.55;;;1.60;99.90;;;;;;486108;242;27493;-69
2022/01/07 10:22:00;;;;;;;7.30;5.00;;;1.60;99.90;;;;;;486099;242;27372;-70
2022/01/07 10:24:01;;;;;;;6.22;4.20;;;1.60;99.90;;;;;;486097;242;27468;-69
2022/01/07 10:26:04;;;;;;;4.87;4.37;;;1.70;99.90;;;;;;486096;242;27468;-69
2022/01/07 10:28:05;;;;;;;5.95;4.80;;;1.70;99.90;;;;;;486097;242;27427;-69
2022/01/07 10:30:06;;;;;;;6.10;4.40;;;1.70;99.90;;;;;;486092;242;27370;-69
2022/01/07 10:32:07;;;;;;;7.05;4.65;;;1.70;99.90;;;;;;486070;242;27440;-69
2022/01/07 10:34:09;;;;;;;4.97;4.32;;;1.70;99.90;;;;;;486100;242;27919;-69
2022/01/07 10:36:10;;;;;;;4.53;3.90;;;1.60;99.90;;;;;;486120;242;27940;-69
2022/01/07 10:38:11;;;;;;;6.53;4.47;;;1.60;99.90;;;;;;486071;242;28035;-69
2022/01/07 10:40:12;;;;;;;5.07;4.20;;;1.50;99.90;;;;;;486027;242;27832;-69
2022/01/07 10:42:14;;;;;;;5.62;4.30;;;1.50;99.90;;;;;;486060;242;27452;-69
2022/01/07 10:44:15;;;;;;;7.22;4.60;;;1.50;99.90;;;;;;486151;242;27404;-70
2022/01/07 10:46:16;;;;;;;7.97;4.75;;;1.40;99.90;;;;;;486141;242;27445;-69